Time;durP1;ratioP1;P1;durP2;ratioP2;P2;SDS_P1;SDS_P2;PMS_P1;PMS_P2;Temp;Humidity;BMP_temperature;BMP_pressure;BME280_temperature;BME280_humidity;BME280_pressure;Samples;Min_cycle;Max_cycle;Signal;HPM_P1;HPM_P2
2021/04/30 00:01:51;;;;;;;13.05;7.65;;;;;;;11.28;64.95;95792.22;1638472;87;21504;-84
2021/04/30 00:04:18;;;;;;;12.58;7.62;;;;;;;11.35;65.10;95791.78;1637245;87;21508;-84
2021/04/30 00:06:45;;;;;;;14.50;8.48;;;;;;;11.40;64.86;95788.99;1627023;87;21191;-84
2021/04/30 00:09:13;;;;;;;12.25;6.97;;;;;;;11.42;64.88;95782.86;1630443;87;21149;-84
2021/04/30 00:11:39;;;;;;;14.15;8.60;;;;;;;11.44;65.49;95782.02;1636486;86;21169;-84
2021/04/30 00:14:06;;;;;;;14.78;8.65;;;;;;;11.44;65.07;95788.64;1625315;87;21144;-84
2021/04/30 00:16:39;;;;;;;11.53;7.42;;;;;;;11.43;65.10;95788.41;1625654;87;21190;-84
2021/04/30 00:19:04;;;;;;;12.80;7.42;;;;;;;11.37;65.25;95786.95;1630616;87;21193;-84
2021/04/30 00:21:30;;;;;;;12.45;7.90;;;;;;;11.32;65.03;95782.56;1634085;87;21197;-84
2021/04/30 00:23:59;;;;;;;13.90;8.78;;;;;;;11.33;65.13;95780.69;1631786;86;21173;-84
2021/04/30 00:26:26;;;;;;;14.65;8.85;;;;;;;11.35;65.26;95781.95;1628277;87;21271;-84
2021/04/30 00:28:54;;;;;;;13.98;8.53;;;;;;;11.38;65.06;95779.23;1625830;87;21193;-84
2021/04/30 00:31:21;;;;;;;12.60;7.70;;;;;;;11.39;65.02;95772.28;1628883;87;21533;-84
2021/04/30 00:33:48;;;;;;;13.18;7.60;;;;;;;11.41;65.05;95772.80;1641218;87;21154;-84
2021/04/30 00:36:15;;;;;;;11.80;7.70;;;;;;;11.43;65.06;95768.50;1638996;87;21116;-84
2021/04/30 00:38:42;;;;;;;11.55;7.65;;;;;;;11.44;65.04;95766.09;1639533;87;21204;-84
2021/04/30 00:41:09;;;;;;;11.18;6.70;;;;;;;11.47;65.01;95768.13;1641170;86;21116;-85
2021/04/30 00:43:36;;;;;;;12.73;7.67;;;;;;;11.45;65.42;95766.33;1641963;87;21142;-84
2021/04/30 00:46:03;;;;;;;13.00;8.55;;;;;;;11.44;65.34;95771.40;1642835;87;21201;-84
2021/04/30 00:48:30;;;;;;;12.88;7.65;;;;;;;11.45;65.30;95766.33;1642377;87;21188;-84
2021/04/30 00:50:57;;;;;;;13.22;8.03;;;;;;;11.47;65.43;95760.16;1640398;86;21123;-84
2021/04/30 00:53:24;;;;;;;11.22;7.30;;;;;;;11.49;65.33;95767.28;1639846;87;21158;-84
2021/04/30 00:55:51;;;;;;;12.20;7.17;;;;;;;11.51;65.33;95771.73;1641641;87;21162;-84
2021/04/30 00:58:20;;;;;;;11.48;7.83;;;;;;;11.50;65.54;95768.84;1642023;87;21526;-84
2021/04/30 01:00:47;;;;;;;11.73;7.35;;;;;;;11.51;65.31;95771.73;1637575;86;21297;-85
2021/04/30 01:03:15;;;;;;;11.75;6.97;;;;;;;11.54;65.32;95777.23;1638385;87;21157;-84
2021/04/30 01:05:42;;;;;;;14.45;7.70;;;;;;;11.57;65.39;95783.81;1640282;87;21171;-84
2021/04/30 01:08:09;;;;;;;13.75;8.40;;;;;;;11.55;65.42;95792.63;1640526;87;21123;-84
2021/04/30 01:10:36;;;;;;;12.95;8.18;;;;;;;11.52;66.54;95789.23;1640813;86;21196;-84
2021/04/30 01:13:04;;;;;;;14.65;8.30;;;;;;;11.50;66.75;95804.67;1638147;87;21559;-84
2021/04/30 01:15:32;;;;;;;13.75;8.10;;;;;;;11.51;67.25;95824.81;1640018;87;21115;-84
2021/04/30 01:18:01;;;;;;;13.22;7.78;;;;;;;11.37;67.34;95824.88;1641650;87;21144;-84
2021/04/30 01:20:28;;;;;;;13.50;8.30;;;;;;;11.19;68.17;95833.27;1641673;86;21135;-84
2021/04/30 01:22:56;;;;;;;16.67;9.38;;;;;;;10.92;68.89;95855.34;1641733;87;21363;-84
2021/04/30 01:25:28;;;;;;;11.73;6.35;;;;;;;10.77;69.30;95878.75;1637534;87;21498;-84
2021/04/30 01:27:58;;;;;;;11.22;7.15;;;;;;;10.76;73.67;95889.11;1637010;87;21127;-85
2021/04/30 01:30:29;;;;;;;13.48;8.43;;;;;;;10.98;75.83;95903.78;1646432;86;21714;-85
2021/04/30 01:32:57;;;;;;;14.25;7.83;;;;;;;10.95;76.97;95907.00;1642098;87;21152;-85
2021/04/30 01:35:35;;;;;;;16.25;9.20;;;;;;;10.92;78.77;95903.62;1641369;87;21581;-85
2021/04/30 01:38:04;;;;;;;14.75;9.58;;;;;;;10.87;79.12;95899.22;1630993;87;21127;-84
2021/04/30 01:40:35;;;;;;;14.00;9.08;;;;;;;10.85;78.31;95901.93;1641525;87;21207;-84
2021/04/30 01:43:10;;;;;;;14.75;9.38;;;;;;;10.81;78.77;95899.61;1641907;87;21259;-84
2021/04/30 01:45:56;;;;;;;18.30;10.20;;;;;;;10.79;77.98;95907.08;1634503;87;21145;-84
2021/04/30 01:48:30;;;;;;;15.03;9.23;;;;;;;10.82;77.77;95913.11;1640907;87;21144;-84
2021/04/30 01:50:59;;;;;;;15.18;9.08;;;;;;;10.71;77.44;95913.88;1640065;86;21187;-84
2021/04/30 01:53:30;;;;;;;13.95;9.10;;;;;;;10.62;77.43;95920.94;1640815;87;21203;-84
2021/04/30 01:55:59;;;;;;;14.93;9.28;;;;;;;10.43;78.12;95910.44;1641801;87;21288;-84
2021/04/30 01:58:26;;;;;;;14.90;8.95;;;;;;;10.30;78.53;95913.31;1642090;87;21686;-84
2021/04/30 02:00:56;;;;;;;14.98;9.83;;;;;;;10.20;78.99;95913.46;1644142;86;21158;-84
2021/04/30 02:03:25;;;;;;;15.53;9.58;;;;;;;10.14;79.44;95916.51;1641005;87;21123;-84
2021/04/30 02:05:52;;;;;;;12.15;8.18;;;;;;;10.13;78.97;95913.05;1640296;87;21536;-84
2021/04/30 02:08:20;;;;;;;17.17;10.30;;;;;;;10.18;79.35;95906.89;1637558;87;21562;-84
2021/04/30 02:10:49;;;;;;;14.85;9.55;;;;;;;10.20;80.76;95908.70;1646441;86;21495;-84
2021/04/30 02:13:19;;;;;;;21.82;11.18;;;;;;;10.18;81.00;95907.67;1639649;87;21182;-84
2021/04/30 02:15:50;;;;;;;16.93;9.67;;;;;;;10.15;80.73;95901.64;1641772;87;21505;-84
2021/04/30 02:18:18;;;;;;;14.58;9.18;;;;;;;10.18;80.57;95893.64;1644990;87;21574;-83
2021/04/30 02:20:45;;;;;;;15.98;9.18;;;;;;;10.21;80.30;95903.14;1635538;87;21174;-83
2021/04/30 02:23:13;;;;;;;18.25;9.80;;;;;;;10.22;81.69;95902.60;1627390;87;21174;-83
2021/04/30 02:25:41;;;;;;;14.23;9.33;;;;;;;10.15;81.34;95899.53;1657088;86;21156;-83
2021/04/30 02:28:09;;;;;;;15.15;9.23;;;;;;;10.16;80.84;95897.91;1672370;85;21514;-83
2021/04/30 02:30:40;;;;;;;14.05;9.20;;;;;;;10.20;80.98;95896.78;1665930;85;21192;-84
2021/04/30 02:33:09;;;;;;;15.00;8.98;;;;;;;10.19;81.58;95896.00;1633737;86;21146;-84
2021/04/30 02:35:40;;;;;;;15.53;9.68;;;;;;;10.20;81.13;95890.16;1625409;88;21195;-84
2021/04/30 02:38:10;;;;;;;15.25;9.23;;;;;;;10.20;81.38;95900.76;1632268;86;21542;-84
2021/04/30 02:40:40;;;;;;;15.63;8.60;;;;;;;10.24;81.28;95896.47;1654564;86;21179;-83
2021/04/30 02:43:11;;;;;;;14.63;8.63;;;;;;;10.25;81.22;95899.36;1654056;86;21171;-84
2021/04/30 02:45:41;;;;;;;14.87;9.13;;;;;;;10.25;81.25;95890.88;1654330;86;21146;-84
2021/04/30 02:48:13;;;;;;;15.13;9.43;;;;;;;10.23;81.71;95883.77;1653690;86;21535;-84
2021/04/30 02:50:42;;;;;;;13.38;9.25;;;;;;;10.16;83.26;95887.86;1641191;86;21175;-84
2021/04/30 02:53:10;;;;;;;13.98;8.15;;;;;;;10.05;83.66;95897.30;1646072;86;21523;-85
2021/04/30 02:55:37;;;;;;;14.95;8.68;;;;;;;10.08;83.05;95899.36;1655906;86;21171;-84
2021/04/30 02:58:04;;;;;;;13.58;8.05;;;;;;;10.09;83.45;95904.12;1651905;86;21227;-84
2021/04/30 03:00:33;;;;;;;12.47;7.42;;;;;;;10.08;83.56;95902.55;1655155;86;21238;-84
2021/04/30 03:03:02;;;;;;;14.83;8.50;;;;;;;10.07;84.78;95893.04;1649003;86;21164;-84
2021/04/30 03:05:30;;;;;;;13.68;8.43;;;;;;;10.05;84.57;95899.16;1646098;86;21164;-84
2021/04/30 03:07:57;;;;;;;14.03;9.58;;;;;;;10.00;84.88;95894.75;1651098;86;21177;-84
2021/04/30 03:10:25;;;;;;;14.75;9.73;;;;;;;9.96;85.87;95905.66;1650588;86;21249;-84
2021/04/30 03:12:52;;;;;;;13.20;8.40;;;;;;;9.92;85.50;95906.00;1653666;86;21541;-84
2021/04/30 03:15:20;;;;;;;12.47;8.38;;;;;;;9.94;85.40;95903.84;1650036;86;21591;-84
2021/04/30 03:17:48;;;;;;;13.35;8.70;;;;;;;9.99;84.88;95913.55;1644523;86;21555;-85
2021/04/30 03:20:18;;;;;;;12.33;7.85;;;;;;;10.05;84.70;95905.25;1645480;86;21556;-84
2021/04/30 03:22:46;;;;;;;10.45;5.92;;;;;;;10.10;84.39;95917.06;1640046;86;21147;-84
2021/04/30 03:25:15;;;;;;;12.00;5.90;;;;;;;10.13;84.81;95906.42;1652751;86;21217;-84
2021/04/30 03:27:43;;;;;;;12.28;7.05;;;;;;;10.13;85.72;95902.45;1644460;86;21199;-84
2021/04/30 03:30:13;;;;;;;12.75;7.25;;;;;;;10.10;85.34;95909.13;1646234;86;21182;-84
2021/04/30 03:32:41;;;;;;;10.53;7.58;;;;;;;10.07;86.58;95903.09;1664291;85;21180;-84
2021/04/30 03:35:15;;;;;;;10.68;7.05;;;;;;;10.03;86.52;95905.30;1676309;85;21160;-84
2021/04/30 03:37:39;;;;;;;12.15;7.78;;;;;;;10.02;86.39;95903.73;1673879;85;21174;-83
2021/04/30 03:40:08;;;;;;;10.28;6.58;;;;;;;10.04;85.91;95902.89;1673408;84;21229;-84
2021/04/30 03:42:35;;;;;;;11.60;6.67;;;;;;;10.07;85.85;95904.41;1676482;84;21162;-83
2021/04/30 03:45:02;;;;;;;10.00;6.35;;;;;;;10.10;86.46;95905.69;1680045;85;21158;-83
2021/04/30 03:47:29;;;;;;;10.43;6.67;;;;;;;10.11;87.01;95901.96;1676128;85;21558;-84
2021/04/30 03:49:56;;;;;;;11.57;5.80;;;;;;;10.10;86.86;95901.17;1677277;84;21532;-84
2021/04/30 03:52:23;;;;;;;11.33;6.75;;;;;;;10.14;87.61;95897.43;1677940;84;21204;-84
2021/04/30 03:54:50;;;;;;;10.75;7.00;;;;;;;10.15;87.75;95907.48;1675893;84;21161;-83
2021/04/30 03:57:17;;;;;;;10.60;7.17;;;;;;;10.16;88.11;95914.34;1677976;84;21143;-83
2021/04/30 03:59:44;;;;;;;12.47;7.60;;;;;;;10.14;87.70;95921.80;1668393;85;21591;-83
2021/04/30 04:02:11;;;;;;;10.82;6.70;;;;;;;10.14;88.50;95921.27;1660010;85;21506;-83
2021/04/30 04:04:38;;;;;;;11.20;6.10;;;;;;;10.14;88.21;95926.56;1679244;85;21156;-83
2021/04/30 04:07:05;;;;;;;10.18;6.20;;;;;;;10.15;88.11;95924.70;1679761;84;21147;-83
2021/04/30 04:09:32;;;;;;;9.65;6.03;;;;;;;10.15;87.97;95928.12;1674577;84;21181;-83
2021/04/30 04:11:58;;;;;;;7.85;5.62;;;;;;;10.17;88.21;95933.92;1662549;86;21207;-83
2021/04/30 04:14:25;;;;;;;9.25;5.53;;;;;;;10.17;88.42;95935.24;1664233;85;21199;-83
2021/04/30 04:16:52;;;;;;;7.40;5.08;;;;;;;10.18;88.72;95938.14;1660969;85;21518;-83
2021/04/30 04:19:19;;;;;;;10.05;5.25;;;;;;;10.21;89.46;95946.03;1663734;85;21502;-83
2021/04/30 04:21:47;;;;;;;7.25;5.40;;;;;;;10.23;89.86;95942.04;1665637;85;21223;-83
2021/04/30 04:24:13;;;;;;;9.18;5.75;;;;;;;10.25;90.15;95938.55;1672667;85;21171;-83
2021/04/30 04:26:41;;;;;;;8.58;5.00;;;;;;;10.25;90.32;95941.75;1671836;85;21158;-84
2021/04/30 04:29:08;;;;;;;9.40;6.45;;;;;;;10.28;90.49;95935.89;1667477;85;21227;-83
2021/04/30 04:31:36;;;;;;;9.30;5.10;;;;;;;10.29;90.38;95937.45;1635642;87;21186;-83
2021/04/30 04:34:04;;;;;;;8.18;5.72;;;;;;;10.30;89.72;95939.03;1677353;84;21146;-83
2021/04/30 04:36:33;;;;;;;10.18;6.10;;;;;;;10.33;89.18;95940.55;1672878;84;21541;-83
2021/04/30 04:39:00;;;;;;;7.05;4.40;;;;;;;10.37;89.16;95950.01;1681207;84;21198;-83
2021/04/30 04:41:28;;;;;;;7.60;4.15;;;;;;;10.41;88.87;95954.97;1672773;84;21566;-83
2021/04/30 04:43:55;;;;;;;9.05;4.78;;;;;;;10.48;88.96;95965.98;1671165;85;21197;-83
2021/04/30 04:46:22;;;;;;;7.28;4.22;;;;;;;10.53;88.79;95966.42;1655131;85;21114;-83
2021/04/30 04:48:49;;;;;;;7.50;4.50;;;;;;;10.54;88.87;95963.47;1655134;85;21173;-83
2021/04/30 04:51:16;;;;;;;6.15;4.08;;;;;;;10.54;88.55;95968.77;1635153;87;21220;-83
2021/04/30 04:53:43;;;;;;;5.78;3.72;;;;;;;10.53;88.54;95969.85;1634235;87;21541;-83
2021/04/30 04:56:10;;;;;;;4.97;2.90;;;;;;;10.53;88.27;95973.83;1652425;87;21552;-83
2021/04/30 04:58:37;;;;;;;5.47;3.62;;;;;;;10.55;88.21;95976.19;1643598;86;21530;-83
2021/04/30 05:01:06;;;;;;;5.80;2.60;;;;;;;10.56;88.05;95976.45;1680568;84;22202;-83
2021/04/30 05:03:34;;;;;;;3.95;2.77;;;;;;;10.54;88.15;95983.34;1678020;85;21150;-83
2021/04/30 05:06:01;;;;;;;4.17;3.10;;;;;;;10.55;88.03;95981.48;1677411;85;21158;-83
2021/04/30 05:08:28;;;;;;;5.78;3.67;;;;;;;10.58;88.06;95985.69;1677289;85;21145;-84
2021/04/30 05:10:55;;;;;;;4.87;3.50;;;;;;;10.57;88.32;95989.41;1671680;84;21151;-83
2021/04/30 05:13:22;;;;;;;4.62;2.90;;;;;;;10.50;88.54;96001.46;1655279;87;21202;-83
2021/04/30 05:15:49;;;;;;;4.50;3.02;;;;;;;10.48;88.54;96006.27;1655870;85;21122;-83
2021/04/30 05:18:17;;;;;;;3.85;2.50;;;;;;;10.51;88.54;96009.12;1632342;87;21160;-83
2021/04/30 05:20:44;;;;;;;3.50;2.25;;;;;;;10.58;88.40;96010.08;1633749;87;21207;-83
2021/04/30 05:23:11;;;;;;;2.17;1.90;;;;;;;10.63;88.28;96005.45;1627751;87;21554;-83
2021/04/30 05:25:38;;;;;;;3.30;2.45;;;;;;;10.69;88.26;96010.12;1664647;85;21186;-83
2021/04/30 05:28:06;;;;;;;3.52;1.55;;;;;;;10.69;88.31;96010.12;1677148;84;21530;-83
2021/04/30 05:30:33;;;;;;;3.60;1.70;;;;;;;10.68;88.26;96013.31;1678206;84;21134;-83
2021/04/30 05:33:01;;;;;;;3.62;1.77;;;;;;;10.69;88.47;96015.42;1668502;85;21567;-83
2021/04/30 05:35:30;;;;;;;3.35;1.82;;;;;;;10.72;88.34;96014.07;1659677;86;21517;-84
2021/04/30 05:37:58;;;;;;;2.83;2.25;;;;;;;10.74;88.57;96020.65;1662775;86;21622;-83
2021/04/30 05:40:26;;;;;;;2.62;1.70;;;;;;;10.74;88.37;96024.63;1672660;85;21171;-83
2021/04/30 05:42:53;;;;;;;2.87;1.87;;;;;;;10.75;88.68;96032.04;1656185;86;21135;-83
2021/04/30 05:45:20;;;;;;;2.95;1.92;;;;;;;10.75;88.89;96032.82;1656649;85;21158;-83
2021/04/30 05:47:47;;;;;;;4.45;2.65;;;;;;;10.70;88.77;96036.36;1646252;85;21151;-83
2021/04/30 05:50:15;;;;;;;6.97;3.15;;;;;;;10.72;88.70;96047.21;1669024;85;21202;-83
2021/04/30 05:52:42;;;;;;;5.53;3.42;;;;;;;10.72;88.54;96049.32;1637308;86;21163;-83
2021/04/30 05:55:11;;;;;;;3.95;2.62;;;;;;;10.74;88.56;96043.72;1650654;85;21165;-83
2021/04/30 05:57:40;;;;;;;4.65;2.77;;;;;;;10.74;88.38;96043.72;1664226;85;21139;-83
2021/04/30 06:00:13;;;;;;;4.17;2.90;;;;;;;10.76;88.08;96044.22;1636210;86;21231;-83
2021/04/30 06:02:40;;;;;;;4.95;2.90;;;;;;;10.76;88.03;96046.32;1645313;86;21176;-83
2021/04/30 06:05:09;;;;;;;5.35;3.08;;;;;;;10.76;87.85;96048.98;1621916;87;21585;-83
2021/04/30 06:07:36;;;;;;;4.85;3.05;;;;;;;10.77;87.71;96047.89;1618581;86;21153;-83
2021/04/30 06:10:06;;;;;;;4.85;2.92;;;;;;;10.78;87.66;96046.03;1623318;86;21165;-83
2021/04/30 06:12:34;;;;;;;4.60;3.08;;;;;;;10.79;87.51;96040.43;1649791;86;21139;-83
2021/04/30 06:15:03;;;;;;;4.47;2.85;;;;;;;10.84;87.31;96046.17;1639488;87;21167;-83
2021/04/30 06:17:31;;;;;;;6.03;3.05;;;;;;;10.92;87.39;96044.17;1650129;86;21137;-83
2021/04/30 06:19:58;;;;;;;6.25;3.90;;;;;;;10.98;87.59;96049.65;1654551;85;21173;-83
2021/04/30 06:22:26;;;;;;;4.97;3.60;;;;;;;11.00;87.60;96058.09;1636603;87;21216;-82
2021/04/30 06:24:53;;;;;;;5.10;3.58;;;;;;;11.04;87.85;96055.09;1631629;87;21189;-83
2021/04/30 06:27:20;;;;;;;6.55;3.90;;;;;;;11.11;87.52;96055.47;1647340;87;21603;-83
2021/04/30 06:29:48;;;;;;;6.12;3.95;;;;;;;11.24;87.17;96054.69;1640407;86;21241;-83
2021/04/30 06:32:15;;;;;;;5.67;3.60;;;;;;;11.27;86.16;96046.16;1632721;86;21235;-83
2021/04/30 06:34:42;;;;;;;9.00;4.17;;;;;;;11.27;85.39;96058.10;1621487;86;21542;-83
2021/04/30 06:37:10;;;;;;;4.83;3.85;;;;;;;11.25;85.59;96056.26;1645286;86;21145;-83
2021/04/30 06:39:37;;;;;;;5.65;3.95;;;;;;;11.25;85.57;96060.78;1681877;84;21183;-83
2021/04/30 06:42:06;;;;;;;6.62;4.30;;;;;;;11.23;85.28;96059.75;1669715;86;21131;-83
2021/04/30 06:44:33;;;;;;;7.15;4.25;;;;;;;11.29;85.21;96061.23;1666995;86;21119;-83
2021/04/30 06:47:01;;;;;;;5.65;3.95;;;;;;;11.35;84.97;96068.55;1668242;86;21176;-83
2021/04/30 06:49:29;;;;;;;5.53;3.55;;;;;;;11.41;84.68;96071.91;1669018;84;21178;-83
2021/04/30 06:51:56;;;;;;;6.75;4.08;;;;;;;11.44;84.37;96073.96;1670189;86;21232;-83
2021/04/30 06:54:23;;;;;;;6.92;4.58;;;;;;;11.46;83.80;96071.80;1668876;86;21131;-83
2021/04/30 06:56:50;;;;;;;9.25;4.45;;;;;;;11.52;82.89;96074.58;1669810;86;21147;-83
2021/04/30 06:59:17;;;;;;;5.40;3.85;;;;;;;11.53;83.23;96078.80;1675629;84;21163;-83
2021/04/30 07:01:44;;;;;;;5.53;3.95;;;;;;;11.53;83.45;96076.14;1669542;86;21193;-83
2021/04/30 07:04:12;;;;;;;7.67;4.30;;;;;;;11.56;82.88;96076.91;1669707;86;22497;-83
2021/04/30 07:06:39;;;;;;;7.65;4.95;;;;;;;11.64;83.24;96081.50;1670783;86;21187;-83
2021/04/30 07:09:07;;;;;;;8.50;4.83;;;;;;;11.69;82.86;96082.73;1667030;84;21214;-83
2021/04/30 07:11:35;;;;;;;7.22;4.80;;;;;;;11.69;80.95;96084.06;1667384;86;21867;-83
2021/04/30 07:14:04;;;;;;;6.60;4.33;;;;;;;11.70;80.86;96086.18;1669134;86;21185;-83
2021/04/30 07:16:32;;;;;;;7.58;4.95;;;;;;;11.76;81.10;96081.78;1670421;86;21133;-83
2021/04/30 07:19:00;;;;;;;6.85;4.75;;;;;;;11.82;80.03;96079.81;1673512;84;21208;-83
2021/04/30 07:21:27;;;;;;;6.10;3.50;;;;;;;11.81;78.67;96084.34;1662584;86;21508;-83
2021/04/30 07:23:54;;;;;;;7.87;4.83;;;;;;;11.74;76.74;96083.95;1684211;84;21184;-83
2021/04/30 07:26:22;;;;;;;6.92;3.75;;;;;;;11.74;75.54;96085.81;1678083;84;21548;-83
2021/04/30 07:28:49;;;;;;;8.38;4.70;;;;;;;11.73;74.10;96091.67;1667267;84;21487;-83
2021/04/30 07:31:16;;;;;;;6.72;4.97;;;;;;;11.74;73.84;96097.23;1656910;86;21143;-83
2021/04/30 07:33:46;;;;;;;6.62;4.53;;;;;;;11.78;74.83;96094.21;1659405;84;21543;-83
2021/04/30 07:36:16;;;;;;;6.33;3.72;;;;;;;11.80;74.70;96085.43;1683102;84;21143;-83
2021/04/30 07:38:44;;;;;;;7.25;5.45;;;;;;;11.73;73.84;96098.31;1680283;84;21111;-83
2021/04/30 07:41:12;;;;;;;7.08;5.00;;;;;;;11.66;74.24;96101.89;1680001;84;21506;-83
2021/04/30 07:43:39;;;;;;;8.25;5.28;;;;;;;11.62;73.96;96104.91;1673752;84;21212;-83
2021/04/30 07:46:06;;;;;;;7.70;4.72;;;;;;;11.62;74.35;96110.77;1675269;84;21208;-83
2021/04/30 07:48:34;;;;;;;6.97;4.62;;;;;;;11.59;74.37;96117.45;1682740;84;21147;-83
2021/04/30 07:51:02;;;;;;;10.20;5.12;;;;;;;11.56;74.69;96122.03;1680444;84;21181;-83
2021/04/30 07:53:33;;;;;;;9.08;5.12;;;;;;;11.61;75.54;96119.27;1672382;84;21236;-83
2021/04/30 07:56:01;;;;;;;5.70;4.08;;;;;;;11.78;76.00;96123.42;1655660;84;21621;-83
2021/04/30 07:58:29;;;;;;;8.10;4.97;;;;;;;12.01;75.99;96118.21;1669486;84;21159;-83
2021/04/30 08:00:58;;;;;;;8.15;5.75;;;;;;;12.14;75.99;96114.19;1670700;84;21128;-83
2021/04/30 08:03:27;;;;;;;8.60;6.15;;;;;;;12.24;75.37;96111.83;1686371;84;21600;-83
2021/04/30 08:05:55;;;;;;;9.53;6.37;;;;;;;12.41;74.98;96112.53;1688199;84;21649;-83
2021/04/30 08:08:23;;;;;;;10.03;6.03;;;;;;;12.65;75.21;96116.20;1670245;84;21135;-83
2021/04/30 08:10:50;;;;;;;7.72;6.20;;;;;;;13.20;74.35;96113.25;1675486;84;21468;-83
2021/04/30 08:13:18;;;;;;;8.53;6.15;;;;;;;13.58;72.83;96109.56;1677320;84;21142;-83
2021/04/30 08:15:45;;;;;;;7.62;5.75;;;;;;;13.66;72.35;96107.48;1676986;84;21159;-83
2021/04/30 08:18:13;;;;;;;10.68;6.40;;;;;;;13.43;72.04;96134.73;1681037;84;21538;-83
2021/04/30 08:20:40;;;;;;;11.90;6.72;;;;;;;13.14;72.93;96128.55;1670556;84;21183;-83
2021/04/30 08:23:07;;;;;;;9.30;6.42;;;;;;;13.11;73.42;96124.39;1675405;84;21147;-83
2021/04/30 08:25:35;;;;;;;10.23;7.25;;;;;;;13.24;73.30;96130.98;1683542;84;21163;-83
2021/04/30 08:28:02;;;;;;;10.88;7.25;;;;;;;13.38;72.98;96124.78;1691662;84;21132;-83
2021/04/30 08:30:29;;;;;;;8.85;6.70;;;;;;;13.48;72.75;96123.94;1669469;84;21562;-83
2021/04/30 08:32:57;;;;;;;10.38;7.62;;;;;;;13.83;72.19;96125.38;1677342;84;21151;-83
2021/04/30 08:35:24;;;;;;;12.07;8.18;;;;;;;13.96;71.42;96123.92;1664490;84;21180;-83
2021/04/30 08:37:51;;;;;;;8.35;7.03;;;;;;;14.12;70.76;96118.92;1685946;84;21593;-83
2021/04/30 08:40:19;;;;;;;11.18;7.90;;;;;;;13.88;69.39;96123.34;1688520;84;21147;-83
2021/04/30 08:42:47;;;;;;;9.68;7.47;;;;;;;13.56;69.93;96121.86;1672079;84;21139;-82
2021/04/30 08:45:16;;;;;;;11.78;7.08;;;;;;;13.45;70.90;96124.56;1656965;84;21197;-84
2021/04/30 08:47:45;;;;;;;10.75;7.62;;;;;;;13.36;71.05;96125.84;1674170;85;21227;-84
2021/04/30 08:50:14;;;;;;;10.80;7.72;;;;;;;13.37;71.09;96127.96;1687439;84;21179;-83
2021/04/30 08:52:42;;;;;;;10.93;7.50;;;;;;;13.33;71.56;96138.99;1683309;85;21127;-84
2021/04/30 08:55:14;;;;;;;10.63;6.97;;;;;;;13.35;71.36;96139.47;1680869;84;21159;-84
2021/04/30 08:57:44;;;;;;;10.23;7.70;;;;;;;13.39;71.76;96139.66;1663241;84;21166;-84
2021/04/30 09:00:14;;;;;;;10.55;7.58;;;;;;;13.36;71.71;96142.36;1678272;84;21200;-84
2021/04/30 09:02:42;;;;;;;10.90;7.75;;;;;;;13.29;71.78;96136.16;1663215;84;21131;-84
2021/04/30 09:05:12;;;;;;;9.20;6.58;;;;;;;13.13;71.64;96138.17;1692141;84;21518;-84
2021/04/30 09:07:44;;;;;;;10.65;7.08;;;;;;;13.01;72.15;96144.05;1683608;84;21515;-84
2021/04/30 09:10:16;;;;;;;11.28;7.97;;;;;;;12.90;72.69;96142.19;1672757;84;21142;-84
2021/04/30 09:12:49;;;;;;;11.95;7.97;;;;;;;12.85;72.55;96138.33;1678324;84;21200;-84
2021/04/30 09:15:22;;;;;;;9.70;7.30;;;;;;;12.83;72.62;96141.84;1677641;85;21138;-84
2021/04/30 09:17:49;;;;;;;12.47;9.08;;;;;;;12.85;73.32;96143.66;1684506;84;21495;-84
2021/04/30 09:20:18;;;;;;;10.82;7.87;;;;;;;12.82;73.25;96145.59;1665871;84;21540;-84
2021/04/30 09:22:45;;;;;;;10.93;7.40;;;;;;;12.84;73.22;96147.95;1682026;84;21185;-84
2021/04/30 09:25:16;;;;;;;12.75;7.50;;;;;;;12.88;73.30;96156.34;1681803;84;21216;-83
2021/04/30 09:27:48;;;;;;;12.23;7.65;;;;;;;12.77;73.29;96161.66;1689478;84;21163;-84
2021/04/30 09:30:20;;;;;;;10.48;6.25;;;;;;;12.70;73.46;96154.11;1674299;84;21112;-84
2021/04/30 09:33:11;;;;;;;10.88;7.65;;;;;;;12.67;73.97;96160.59;1676783;84;21177;-84
2021/04/30 09:35:42;;;;;;;11.43;8.20;;;;;;;12.64;73.59;96162.50;1653975;86;21142;-84
2021/04/30 09:38:25;;;;;;;9.68;7.08;;;;;;;12.62;73.75;96167.34;1657667;86;21199;-84
2021/04/30 09:41:09;;;;;;;10.55;7.60;;;;;;;12.64;73.68;96161.17;1676375;84;21475;-84
2021/04/30 09:43:54;;;;;;;12.80;7.97;;;;;;;12.65;73.14;96166.19;1671611;84;21123;-84
2021/04/30 09:46:36;;;;;;;10.70;7.58;;;;;;;12.73;73.52;96163.36;1665694;84;21107;-84
2021/04/30 09:49:11;;;;;;;9.70;6.72;;;;;;;12.75;73.62;96162.51;1659855;84;21194;-84
2021/04/30 09:51:52;;;;;;;9.78;6.75;;;;;;;12.91;73.44;96164.25;1668619;84;21128;-84
2021/04/30 09:54:25;;;;;;;10.68;7.85;;;;;;;12.97;73.03;96163.84;1665986;86;21181;-84
2021/04/30 09:57:19;;;;;;;10.20;7.37;;;;;;;13.04;73.08;96164.73;1665626;86;21531;-84
2021/04/30 10:00:10;;;;;;;9.55;6.70;;;;;;;13.40;73.05;96165.97;1658139;84;21194;-84
2021/04/30 10:02:39;;;;;;;11.12;7.55;;;;;;;14.03;72.86;96155.98;1644533;86;22386;-84
2021/04/30 10:05:14;;;;;;;9.58;6.83;;;;;;;14.46;71.66;96148.84;1668642;86;21119;-85
2021/04/30 10:07:43;;;;;;;8.15;6.75;;;;;;;14.95;69.95;96147.32;1666458;86;21526;-85
2021/04/30 10:10:15;;;;;;;11.45;6.45;;;;;;;14.92;66.63;96146.59;1668464;84;21127;-85
2021/04/30 10:12:48;;;;;;;9.08;6.37;;;;;;;14.78;66.97;96142.25;1668924;86;21169;-84
2021/04/30 10:15:20;;;;;;;9.53;6.67;;;;;;;14.72;67.11;96144.83;1671373;86;21144;-83
2021/04/30 10:17:51;;;;;;;8.93;6.75;;;;;;;14.69;67.07;96142.02;1669407;84;21219;-84
2021/04/30 10:20:18;;;;;;;9.23;6.15;;;;;;;14.61;66.92;96147.58;1668288;84;21218;-84
2021/04/30 10:22:47;;;;;;;8.20;5.75;;;;;;;14.64;67.66;96157.64;1673852;84;21186;-83
2021/04/30 10:25:18;;;;;;;8.38;6.37;;;;;;;14.68;67.35;96146.56;1669144;86;21193;-84
2021/04/30 10:27:55;;;;;;;9.25;6.45;;;;;;;14.69;67.44;96148.12;1670559;86;21546;-83
2021/04/30 10:30:51;;;;;;;8.28;6.45;;;;;;;14.67;66.41;96149.00;1667103;84;21150;-84
2021/04/30 10:33:27;;;;;;;9.88;6.37;;;;;;;14.58;66.94;96148.21;1662157;86;21143;-84
2021/04/30 10:36:28;;;;;;;7.85;6.05;;;;;;;14.70;67.71;96149.70;1669294;84;21589;-85
2021/04/30 10:38:54;;;;;;;9.90;5.67;;;;;;;15.05;68.17;96146.41;1670506;84;21220;-85
2021/04/30 10:41:37;;;;;;;9.53;6.65;;;;;;;15.37;67.32;96145.09;1669043;85;21158;-85
2021/04/30 10:44:22;;;;;;;8.98;6.70;;;;;;;15.45;66.55;96144.80;1656999;85;21181;-85
2021/04/30 10:47:10;;;;;;;11.22;7.08;;;;;;;15.41;65.43;96140.66;1662940;84;21134;-85
2021/04/30 10:49:40;;;;;;;9.03;6.50;;;;;;;15.19;65.43;96133.42;1671757;84;21150;-85
2021/04/30 10:52:19;;;;;;;8.15;6.20;;;;;;;15.12;65.52;96136.59;1671107;84;21642;-85
2021/04/30 10:55:03;;;;;;;7.90;6.22;;;;;;;15.16;64.74;96136.19;1669485;85;21115;-85
2021/04/30 10:57:53;;;;;;;8.80;6.70;;;;;;;15.26;64.81;96135.84;1668387;84;21177;-85
2021/04/30 11:00:41;;;;;;;7.92;5.70;;;;;;;15.73;64.63;96130.48;1744802;79;23072;-83
2021/04/30 11:03:20;;;;;;;8.78;5.83;;;;;;;16.06;64.68;96123.95;1728364;82;21157;-84
2021/04/30 11:05:59;;;;;;;8.15;6.03;;;;;;;16.56;63.65;96122.52;1745125;82;21150;-84
2021/04/30 11:08:54;;;;;;;9.10;5.72;;;;;;;17.10;64.85;96131.11;1752045;81;21165;-85
2021/04/30 11:11:41;;;;;;;8.93;5.37;;;;;;;17.44;62.60;96125.34;1730161;82;21137;-84
2021/04/30 11:14:30;;;;;;;9.18;6.28;;;;;;;17.44;60.37;96128.59;1719437;83;21130;-84
2021/04/30 11:16:59;;;;;;;6.78;5.62;;;;;;;17.03;59.88;96136.20;1724577;83;21139;-84
2021/04/30 11:19:31;;;;;;;9.40;5.67;;;;;;;17.03;60.42;96133.00;1730509;81;21126;-85
2021/04/30 11:22:15;;;;;;;10.40;6.08;;;;;;;17.10;59.90;96131.11;1724397;82;21107;-85
2021/04/30 11:24:46;;;;;;;10.18;6.17;;;;;;;17.13;59.06;96133.90;1728428;81;21123;-85
2021/04/30 11:27:33;;;;;;;8.03;5.75;;;;;;;16.88;59.01;96129.58;1735762;81;21099;-85
2021/04/30 11:30:22;;;;;;;7.87;5.65;;;;;;;16.86;58.94;96121.88;1725479;80;21167;-85
2021/04/30 11:32:53;;;;;;;6.25;4.85;;;;;;;16.65;59.55;96110.97;1724202;82;21462;-85
2021/04/30 11:35:22;;;;;;;7.28;5.05;;;;;;;16.82;58.40;96112.17;1735452;82;21182;-85
2021/04/30 11:37:50;;;;;;;7.10;4.90;;;;;;;16.87;58.46;96123.45;1722377;83;21205;-85
2021/04/30 11:40:20;;;;;;;8.83;4.55;;;;;;;17.02;58.83;96117.23;1699450;82;21517;-85
2021/04/30 11:42:47;;;;;;;6.40;4.62;;;;;;;17.10;57.52;96118.50;1755055;82;21185;-85